createdAt,value
2023-01-22T00:02:44.157Z,98939.53
2023-01-22T00:07:45.938Z,98925.03
2023-01-22T00:12:47.770Z,98924.94
2023-01-22T00:17:49.556Z,98928.22
2023-01-22T00:22:51.263Z,98925.59
2023-01-22T00:27:54.111Z,98933.34
2023-01-22T00:32:55.946Z,98934.34
2023-01-22T00:37:59.218Z,98926.94
2023-01-22T00:43:01.132Z,98939.81
2023-01-22T00:48:03.231Z,98944.28
2023-01-22T00:53:05.079Z,98940.81
2023-01-22T00:58:06.910Z,98946.75
2023-01-22T01:03:27.486Z,98957.78
2023-01-22T01:08:32.402Z,98951.84
2023-01-22T01:13:38.513Z,98959.53
2023-01-22T01:18:40.497Z,98958.78
2023-01-22T01:23:42.891Z,98962.09
2023-01-22T01:28:45.855Z,98966.28
2023-01-22T01:33:48.205Z,98955.25
2023-01-22T01:38:51.530Z,98951.13
2023-01-22T01:44:14.228Z,98949.38
2023-01-22T01:49:22.544Z,98944.28
2023-01-22T01:54:25.887Z,98945.84
2023-01-22T01:59:28.210Z,98951.84
2023-01-22T02:04:30.867Z,98957.16
2023-01-22T02:09:34.426Z,98961.63
2023-01-22T02:14:40.622Z,98975.03
2023-01-22T02:19:44.246Z,98967.19
2023-01-22T02:24:46.289Z,98974.97
2023-01-22T02:29:48.521Z,98980.97
2023-01-22T02:34:50.948Z,98990.38
2023-01-22T02:39:52.916Z,98992.84
2023-01-22T02:44:55.041Z,98987.19
2023-01-22T02:49:56.868Z,98989.00
2023-01-22T02:54:58.901Z,98988.00
2023-01-22T03:00:00.925Z,98990.47
2023-01-22T03:05:05.769Z,98993.94
2023-01-22T03:10:10.899Z,98984.44
2023-01-22T03:15:32.130Z,98986.09
2023-01-22T03:20:55.545Z,98992.13
2023-01-22T03:25:57.387Z,98997.06
2023-01-22T03:31:00.633Z,99000.53
2023-01-22T03:36:06.339Z,99007.63
2023-01-22T03:41:16.271Z,99002.34
2023-01-22T03:46:20.093Z,99011.56
2023-01-22T03:51:26.382Z,99003.75
2023-01-22T03:56:28.576Z,99016.69
2023-01-22T04:01:36.004Z,99022.81
2023-01-22T04:06:37.859Z,99018.50
2023-01-22T04:11:39.845Z,99023.72
2023-01-22T04:16:44.178Z,99027.09
2023-01-22T04:22:18.182Z,99034.69
2023-01-22T04:27:21.637Z,99033.03
2023-01-22T04:32:26.385Z,99035.75
2023-01-22T04:37:46.201Z,99045.97
2023-01-22T04:42:48.218Z,99040.69
2023-01-22T04:47:50.135Z,99038.88
2023-01-22T04:52:56.416Z,99036.16
2023-01-22T04:58:00.177Z,99044.56
2023-01-22T05:03:04.618Z,99049.69
2023-01-22T05:08:06.888Z,99048.75
2023-01-22T05:13:11.480Z,99054.78
2023-01-22T05:18:14.272Z,99057.53
2023-01-22T05:23:28.174Z,99047.38
2023-01-22T05:28:30.695Z,99057.69
2023-01-22T05:34:07.976Z,99066.66
2023-01-22T05:39:10.227Z,99067.56
2023-01-22T05:44:14.059Z,99066.75
2023-01-22T05:49:19.007Z,99074.91
2023-01-22T05:54:20.962Z,99071.53
2023-01-22T05:59:23.885Z,99079.19
2023-01-22T06:04:34.007Z,99071.53
2023-01-22T06:09:39.399Z,99077.38
2023-01-22T06:14:41.556Z,99083.31
2023-01-22T06:19:44.081Z,99084.97
2023-01-22T06:24:47.277Z,99098.50
2023-01-22T06:29:51.578Z,99102.78
2023-01-22T06:34:53.850Z,99113.84
2023-01-22T06:39:55.727Z,99116.47
2023-01-22T06:45:10.943Z,99121.50
2023-01-22T06:50:18.900Z,99129.19
2023-01-22T06:55:20.956Z,99135.22
2023-01-22T07:00:23.547Z,99141.16
2023-01-22T07:05:27.532Z,99142.81
2023-01-22T07:10:29.410Z,99155.50
2023-01-22T07:15:31.277Z,99161.34
2023-01-22T07:20:33.016Z,99157.91
2023-01-22T07:25:35.188Z,99159.53
2023-01-22T07:30:37.546Z,99165.47
2023-01-22T07:35:40.053Z,99179.19
2023-01-22T07:40:41.913Z,99182.56
2023-01-22T07:45:43.735Z,99185.13
2023-01-22T07:50:45.515Z,99196.25
2023-01-22T07:55:47.307Z,99201.53
2023-01-22T08:00:49.360Z,99202.28
2023-01-22T08:05:51.185Z,99204.84
2023-01-22T08:10:52.942Z,99208.16
2023-01-22T08:15:55.210Z,99210.53
2023-01-22T08:21:01.125Z,99213.09
2023-01-22T08:26:04.446Z,99221.69
2023-01-22T08:31:09.362Z,99229.34
2023-01-22T08:36:13.202Z,99236.28
2023-01-22T08:41:15.787Z,99252.53
2023-01-22T08:46:17.609Z,99250.63
2023-01-22T08:51:19.950Z,99244.69
2023-01-22T08:56:22.170Z,99250.72
2023-01-22T09:01:24.390Z,99256.00
2023-01-22T09:06:27.343Z,99261.69
2023-01-22T09:11:29.812Z,99258.06
2023-01-22T09:16:32.967Z,99259.47
2023-01-22T09:21:37.455Z,99256.75
2023-01-22T09:26:39.453Z,99258.16
2023-01-22T09:31:41.245Z,99254.44
2023-01-22T09:36:43.369Z,99258.91
2023-01-22T09:41:53.686Z,99264.91
2023-01-22T09:47:03.902Z,99265.66
2023-01-22T09:52:09.871Z,99272.44
2023-01-22T09:57:30.673Z,99275.91
2023-01-22T10:02:47.218Z,99272.84
2023-01-22T10:08:05.827Z,99279.38
2023-01-22T10:13:27.709Z,99291.25
2023-01-22T10:18:55.837Z,99277.78
2023-01-22T10:23:59.333Z,99281.94
2023-01-22T10:29:23.595Z,99290.34
2023-01-22T10:34:32.925Z,99291.16
2023-01-22T10:39:45.220Z,99295.53
2023-01-22T10:44:47.630Z,99304.31
2023-01-22T10:50:06.020Z,99299.00
2023-01-22T10:55:21.649Z,99294.63
2023-01-22T11:00:42.950Z,99295.22
2023-01-22T11:05:58.997Z,99296.03
2023-01-22T11:11:04.501Z,99286.13
2023-01-22T11:16:16.374Z,99285.78
2023-01-22T11:21:35.513Z,99294.38
2023-01-22T11:27:14.596Z,99305.28
2023-01-22T11:32:22.252Z,99303.63
2023-01-22T11:37:58.867Z,99306.09
2023-01-22T11:43:18.899Z,99305.69
2023-01-22T11:48:44.094Z,99303.97
2023-01-22T11:54:06.309Z,99295.03
2023-01-22T11:59:35.166Z,99287.09
2023-01-22T12:05:12.025Z,99284.53
2023-01-22T12:11:07.719Z,99282.97
2023-01-22T12:16:22.123Z,99288.75
2023-01-22T12:21:35.310Z,99298.50
2023-01-22T12:26:45.850Z,99278.63
2023-01-22T12:32:04.939Z,99291.50
2023-01-22T12:37:11.011Z,99299.75
2023-01-22T12:42:13.926Z,99295.72
2023-01-22T12:47:27.339Z,99295.88
2023-01-22T12:52:36.475Z,99295.22
2023-01-22T12:57:41.175Z,99303.88
2023-01-22T13:02:43.119Z,99300.50
2023-01-22T13:07:45.951Z,99293.56
2023-01-22T13:12:53.070Z,99302.91
2023-01-22T13:18:17.132Z,99313.06
2023-01-22T13:23:21.552Z,99313.13
2023-01-22T13:28:28.507Z,99309.75
2023-01-22T13:33:31.679Z,99321.63
2023-01-22T13:38:33.583Z,99321.63
2023-01-22T13:43:38.152Z,99315.69
2023-01-22T13:48:40.459Z,99324.28
2023-01-22T13:53:52.000Z,99323.63
2023-01-22T13:59:19.500Z,99321.97
2023-01-22T14:04:37.625Z,99334.84
2023-01-22T14:09:40.835Z,99327.91
2023-01-22T14:14:43.778Z,99332.28
2023-01-22T14:19:45.625Z,99338.13
2023-01-22T14:24:55.149Z,99337.00
2023-01-22T14:29:57.047Z,99340.28
2023-01-22T14:35:04.632Z,99330.72
2023-01-22T14:40:07.480Z,99333.28
2023-01-22T14:45:10.427Z,99328.25
2023-01-22T14:50:16.608Z,99332.63
2023-01-22T14:55:19.647Z,99327.50
2023-01-22T15:00:21.756Z,99334.44
2023-01-22T15:05:24.096Z,99346.41
2023-01-22T15:10:25.906Z,99345.75
2023-01-22T15:15:28.622Z,99349.19
2023-01-22T15:20:30.470Z,99346.56
2023-01-22T15:25:32.386Z,99350.94
2023-01-22T15:30:34.157Z,99354.47
2023-01-22T15:35:35.992Z,99352.09
2023-01-22T15:40:40.888Z,99350.44
2023-01-22T15:45:42.740Z,99357.28
2023-01-22T15:50:44.651Z,99360.81
2023-01-22T15:55:50.310Z,99376.25
2023-01-22T16:00:52.077Z,99378.91
2023-01-22T16:05:54.132Z,99382.44
2023-01-22T16:10:56.231Z,99395.53
2023-01-22T16:16:04.373Z,99405.84
2023-01-22T16:21:07.515Z,99413.69
2023-01-22T16:26:14.074Z,99407.06
2023-01-22T16:31:18.932Z,99411.28
2023-01-22T16:36:25.660Z,99415.66
2023-01-22T16:41:30.418Z,99408.97
2023-01-22T16:46:34.155Z,99416.63
2023-01-22T16:51:41.112Z,99421.75
2023-01-22T16:56:45.814Z,99424.16
2023-01-22T17:01:47.971Z,99424.97
2023-01-22T17:06:55.578Z,99414.97
2023-01-22T17:12:00.707Z,99420.91
2023-01-22T17:18:08.458Z,99424.31
2023-01-22T17:23:10.378Z,99429.66
2023-01-22T17:28:12.450Z,99433.03
2023-01-22T17:33:14.833Z,99436.41
2023-01-22T17:38:19.488Z,99450.94
2023-01-22T17:43:23.086Z,99451.84
2023-01-22T17:48:34.196Z,99472.38
2023-01-22T17:53:42.745Z,99464.78
2023-01-22T17:58:45.706Z,99474.84
2023-01-22T18:03:48.692Z,99482.47
2023-01-22T18:15:12.974Z,99485.09
2023-01-22T18:20:15.157Z,99488.47
2023-01-22T18:25:25.876Z,99488.56
2023-01-22T18:30:27.888Z,99499.59
2023-01-22T18:35:29.755Z,99507.44
2023-01-22T18:40:32.161Z,99509.00
2023-01-22T18:45:35.955Z,99502.16
2023-01-22T18:57:39.840Z,99526.47
2023-01-22T19:02:50.872Z,99522.09
2023-01-22T19:08:53.537Z,99522.78
2023-01-22T19:22:06.201Z,99532.19
2023-01-22T19:27:43.164Z,99548.22
2023-01-22T19:33:11.486Z,99548.88
2023-01-22T19:39:21.865Z,99559.81
2023-01-22T19:44:25.810Z,99558.16
2023-01-22T19:49:43.045Z,99564.03
2023-01-22T19:54:48.364Z,99562.44
2023-01-22T20:00:05.810Z,99567.56
2023-01-22T20:05:12.127Z,99570.13
2023-01-22T20:10:29.650Z,99572.81
2023-01-22T20:16:43.181Z,99572.91
2023-01-22T20:21:49.079Z,99573.78
2023-01-22T20:27:01.377Z,99590.66
2023-01-22T20:32:03.600Z,99593.91
2023-01-22T20:37:05.550Z,99586.97
2023-01-22T20:42:07.671Z,99589.38
2023-01-22T20:47:09.617Z,99589.22
2023-01-22T20:52:11.480Z,99594.19
2023-01-22T20:57:18.328Z,99609.63
2023-01-22T21:02:29.917Z,99621.59
2023-01-22T21:07:35.601Z,99617.31
2023-01-22T21:12:47.044Z,99619.72
2023-01-22T21:17:49.051Z,99619.72
2023-01-22T21:22:54.238Z,99618.88
2023-01-22T21:27:58.816Z,99635.06
2023-01-22T21:33:00.796Z,99644.56
2023-01-22T21:38:02.785Z,99653.88
2023-01-22T21:43:23.123Z,99653.88
2023-01-22T21:48:25.179Z,99656.59
2023-01-22T21:53:42.527Z,99662.53
2023-01-22T21:58:45.388Z,99665.03
2023-01-22T22:03:51.191Z,99658.19
2023-01-22T22:08:53.143Z,99672.78
2023-01-22T22:14:01.870Z,99673.69
2023-01-22T22:19:29.333Z,99673.00
2023-01-22T22:29:49.009Z,99687.88
2023-01-22T22:34:55.652Z,99694.66
2023-01-22T22:39:58.571Z,99694.59
2023-01-22T22:45:12.640Z,99691.88
2023-01-22T22:50:14.833Z,99696.03
2023-01-22T22:55:16.717Z,99694.38
2023-01-22T23:00:19.396Z,99708.81
2023-01-22T23:05:21.649Z,99713.19
2023-01-22T23:10:29.418Z,99715.81
2023-01-22T23:15:31.376Z,99721.63
2023-01-22T23:20:34.986Z,99723.41
2023-01-22T23:25:36.938Z,99737.94
2023-01-22T23:30:39.578Z,99734.56
2023-01-22T23:35:41.857Z,99734.63
2023-01-22T23:40:43.740Z,99730.34
2023-01-22T23:45:47.034Z,99738.09
2023-01-22T23:50:50.724Z,99740.72
2023-01-22T23:56:05.585Z,99748.44
